sensor_id;sensor_type;location;lat;lon;timestamp;P1;durP1;ratioP1;P2;durP2;ratioP2
75920;SDS011;64600;44.062;2.986;2022-11-28T00:01:21;5.68;;;2.03;;
75920;SDS011;64600;44.062;2.986;2022-11-28T00:03:47;3.60;;;2.45;;
75920;SDS011;64600;44.062;2.986;2022-11-28T00:06:12;2.97;;;2.00;;
75920;SDS011;64600;44.062;2.986;2022-11-28T00:08:38;4.90;;;2.28;;
75920;SDS011;64600;44.062;2.986;2022-11-28T00:11:05;3.78;;;2.30;;
75920;SDS011;64600;44.062;2.986;2022-11-28T00:13:32;2.85;;;1.98;;
75920;SDS011;64600;44.062;2.986;2022-11-28T00:15:58;3.67;;;1.88;;
75920;SDS011;64600;44.062;2.986;2022-11-28T00:18:25;4.05;;;2.25;;
75920;SDS011;64600;44.062;2.986;2022-11-28T00:20:51;4.47;;;2.53;;
75920;SDS011;64600;44.062;2.986;2022-11-28T00:23:17;3.90;;;2.25;;
75920;SDS011;64600;44.062;2.986;2022-11-28T00:25:43;3.08;;;1.98;;
75920;SDS011;64600;44.062;2.986;2022-11-28T00:28:08;6.85;;;2.20;;
75920;SDS011;64600;44.062;2.986;2022-11-28T00:30:37;5.15;;;2.10;;
75920;SDS011;64600;44.062;2.986;2022-11-28T00:33:03;3.53;;;2.30;;
75920;SDS011;64600;44.062;2.986;2022-11-28T00:35:29;3.95;;;2.22;;
75920;SDS011;64600;44.062;2.986;2022-11-28T00:37:54;2.95;;;2.00;;
75920;SDS011;64600;44.062;2.986;2022-11-28T00:40:20;5.03;;;2.40;;
75920;SDS011;64600;44.062;2.986;2022-11-28T00:42:45;4.15;;;2.20;;
75920;SDS011;64600;44.062;2.986;2022-11-28T00:45:11;4.45;;;2.40;;
75920;SDS011;64600;44.062;2.986;2022-11-28T00:47:36;5.55;;;2.38;;
75920;SDS011;64600;44.062;2.986;2022-11-28T00:50:02;4.57;;;2.10;;
75920;SDS011;64600;44.062;2.986;2022-11-28T00:52:30;3.58;;;1.80;;
75920;SDS011;64600;44.062;2.986;2022-11-28T00:54:56;4.63;;;2.40;;
75920;SDS011;64600;44.062;2.986;2022-11-28T00:57:21;3.75;;;2.15;;
75920;SDS011;64600;44.062;2.986;2022-11-28T00:59:47;5.10;;;2.30;;
75920;SDS011;64600;44.062;2.986;2022-11-28T01:02:12;4.85;;;2.38;;
75920;SDS011;64600;44.062;2.986;2022-11-28T01:04:38;3.67;;;2.08;;
75920;SDS011;64600;44.062;2.986;2022-11-28T01:07:03;4.30;;;1.98;;
75920;SDS011;64600;44.062;2.986;2022-11-28T01:09:29;4.07;;;2.40;;
75920;SDS011;64600;44.062;2.986;2022-11-28T01:11:54;4.93;;;2.45;;
75920;SDS011;64600;44.062;2.986;2022-11-28T01:14:21;5.95;;;2.17;;
75920;SDS011;64600;44.062;2.986;2022-11-28T01:16:47;6.13;;;2.53;;
75920;SDS011;64600;44.062;2.986;2022-11-28T01:19:13;4.57;;;2.60;;
75920;SDS011;64600;44.062;2.986;2022-11-28T01:21:39;4.75;;;2.50;;
75920;SDS011;64600;44.062;2.986;2022-11-28T01:24:05;4.18;;;2.28;;
75920;SDS011;64600;44.062;2.986;2022-11-28T01:26:30;6.15;;;2.60;;
75920;SDS011;64600;44.062;2.986;2022-11-28T01:28:57;3.75;;;2.30;;
75920;SDS011;64600;44.062;2.986;2022-11-28T01:31:24;4.20;;;2.33;;
75920;SDS011;64600;44.062;2.986;2022-11-28T01:33:51;5.47;;;2.83;;
75920;SDS011;64600;44.062;2.986;2022-11-28T01:36:17;6.00;;;2.57;;
75920;SDS011;64600;44.062;2.986;2022-11-28T01:38:43;4.25;;;2.67;;
75920;SDS011;64600;44.062;2.986;2022-11-28T01:41:09;5.43;;;3.13;;
75920;SDS011;64600;44.062;2.986;2022-11-28T01:43:36;5.90;;;2.70;;
75920;SDS011;64600;44.062;2.986;2022-11-28T01:46:02;4.07;;;2.35;;
75920;SDS011;64600;44.062;2.986;2022-11-28T01:48:38;5.40;;;2.50;;
75920;SDS011;64600;44.062;2.986;2022-11-28T01:51:06;4.30;;;2.67;;
75920;SDS011;64600;44.062;2.986;2022-11-28T01:53:34;4.30;;;2.70;;
75920;SDS011;64600;44.062;2.986;2022-11-28T01:56:05;5.32;;;2.97;;
75920;SDS011;64600;44.062;2.986;2022-11-28T01:58:33;4.95;;;2.92;;
75920;SDS011;64600;44.062;2.986;2022-11-28T02:00:59;4.45;;;2.60;;
75920;SDS011;64600;44.062;2.986;2022-11-28T02:03:26;4.13;;;2.45;;
75920;SDS011;64600;44.062;2.986;2022-11-28T02:05:54;6.05;;;2.85;;
75920;SDS011;64600;44.062;2.986;2022-11-28T02:08:20;4.85;;;2.75;;
75920;SDS011;64600;44.062;2.986;2022-11-28T02:13:58;5.15;;;2.65;;
75920;SDS011;64600;44.062;2.986;2022-11-28T02:22:23;5.93;;;2.90;;
75920;SDS011;64600;44.062;2.986;2022-11-28T02:24:54;5.15;;;2.70;;
75920;SDS011;64600;44.062;2.986;2022-11-28T02:30:21;6.05;;;3.22;;
75920;SDS011;64600;44.062;2.986;2022-11-28T02:33:11;5.07;;;3.25;;
75920;SDS011;64600;44.062;2.986;2022-11-28T02:35:46;6.50;;;3.30;;
75920;SDS011;64600;44.062;2.986;2022-11-28T02:43:39;4.60;;;2.83;;
75920;SDS011;64600;44.062;2.986;2022-11-28T02:46:14;4.93;;;2.97;;
75920;SDS011;64600;44.062;2.986;2022-11-28T02:54:00;4.55;;;3.03;;
75920;SDS011;64600;44.062;2.986;2022-11-28T02:56:26;5.45;;;2.83;;
75920;SDS011;64600;44.062;2.986;2022-11-28T02:58:52;4.55;;;2.63;;
75920;SDS011;64600;44.062;2.986;2022-11-28T03:01:19;5.68;;;2.80;;
75920;SDS011;64600;44.062;2.986;2022-11-28T03:06:30;5.65;;;3.30;;
75920;SDS011;64600;44.062;2.986;2022-11-28T03:12:24;6.88;;;3.70;;
75920;SDS011;64600;44.062;2.986;2022-11-28T03:15:02;7.28;;;3.60;;
75920;SDS011;64600;44.062;2.986;2022-11-28T03:20:06;6.05;;;3.50;;
75920;SDS011;64600;44.062;2.986;2022-11-28T03:23:01;4.85;;;3.05;;
75920;SDS011;64600;44.062;2.986;2022-11-28T03:28:26;7.28;;;3.65;;
75920;SDS011;64600;44.062;2.986;2022-11-28T03:31:03;6.43;;;3.40;;
75920;SDS011;64600;44.062;2.986;2022-11-28T03:33:37;6.63;;;3.88;;
75920;SDS011;64600;44.062;2.986;2022-11-28T03:36:07;7.85;;;4.07;;
75920;SDS011;64600;44.062;2.986;2022-11-28T03:38:37;5.95;;;3.80;;
75920;SDS011;64600;44.062;2.986;2022-11-28T03:41:15;8.40;;;4.28;;
75920;SDS011;64600;44.062;2.986;2022-11-28T03:43:52;6.32;;;4.30;;
75920;SDS011;64600;44.062;2.986;2022-11-28T03:46:19;7.72;;;4.07;;
75920;SDS011;64600;44.062;2.986;2022-11-28T03:48:49;7.55;;;4.60;;
75920;SDS011;64600;44.062;2.986;2022-11-28T03:56:22;7.38;;;4.22;;
75920;SDS011;64600;44.062;2.986;2022-11-28T03:58:58;6.90;;;4.13;;
75920;SDS011;64600;44.062;2.986;2022-11-28T04:01:31;6.78;;;4.00;;
75920;SDS011;64600;44.062;2.986;2022-11-28T04:04:09;7.40;;;4.00;;
75920;SDS011;64600;44.062;2.986;2022-11-28T04:06:52;7.20;;;3.95;;
75920;SDS011;64600;44.062;2.986;2022-11-28T04:12:14;6.60;;;3.97;;
75920;SDS011;64600;44.062;2.986;2022-11-28T04:14:52;6.72;;;4.00;;
75920;SDS011;64600;44.062;2.986;2022-11-28T04:19:59;7.50;;;4.68;;
75920;SDS011;64600;44.062;2.986;2022-11-28T04:22:34;8.50;;;3.90;;
75920;SDS011;64600;44.062;2.986;2022-11-28T04:25:03;7.68;;;4.03;;
75920;SDS011;64600;44.062;2.986;2022-11-28T04:27:39;6.63;;;3.53;;
75920;SDS011;64600;44.062;2.986;2022-11-28T04:30:07;7.10;;;4.18;;
75920;SDS011;64600;44.062;2.986;2022-11-28T04:32:35;6.30;;;3.67;;
75920;SDS011;64600;44.062;2.986;2022-11-28T04:35:18;6.40;;;3.72;;
75920;SDS011;64600;44.062;2.986;2022-11-28T04:37:56;7.30;;;3.20;;
75920;SDS011;64600;44.062;2.986;2022-11-28T04:40:23;6.53;;;3.55;;
75920;SDS011;64600;44.062;2.986;2022-11-28T04:42:53;6.50;;;3.43;;
75920;SDS011;64600;44.062;2.986;2022-11-28T04:45:31;5.93;;;3.45;;
75920;SDS011;64600;44.062;2.986;2022-11-28T04:47:59;7.70;;;3.55;;
75920;SDS011;64600;44.062;2.986;2022-11-28T04:50:27;5.13;;;3.40;;
75920;SDS011;64600;44.062;2.986;2022-11-28T04:53:00;5.82;;;3.17;;
75920;SDS011;64600;44.062;2.986;2022-11-28T05:00:44;7.13;;;3.35;;
75920;SDS011;64600;44.062;2.986;2022-11-28T05:03:09;5.13;;;3.22;;
75920;SDS011;64600;44.062;2.986;2022-11-28T05:05:46;4.97;;;3.33;;
75920;SDS011;64600;44.062;2.986;2022-11-28T05:08:14;5.53;;;2.95;;
75920;SDS011;64600;44.062;2.986;2022-11-28T05:10:40;7.23;;;2.83;;
75920;SDS011;64600;44.062;2.986;2022-11-28T05:13:06;5.72;;;2.90;;
75920;SDS011;64600;44.062;2.986;2022-11-28T05:15:32;5.97;;;2.60;;
75920;SDS011;64600;44.062;2.986;2022-11-28T05:17:57;4.45;;;2.80;;
75920;SDS011;64600;44.062;2.986;2022-11-28T05:20:23;4.35;;;2.40;;
75920;SDS011;64600;44.062;2.986;2022-11-28T05:22:49;4.70;;;2.40;;
75920;SDS011;64600;44.062;2.986;2022-11-28T05:25:14;6.30;;;2.58;;
75920;SDS011;64600;44.062;2.986;2022-11-28T05:27:40;4.95;;;2.28;;
75920;SDS011;64600;44.062;2.986;2022-11-28T05:30:06;3.53;;;2.25;;
75920;SDS011;64600;44.062;2.986;2022-11-28T05:32:35;4.15;;;2.47;;
75920;SDS011;64600;44.062;2.986;2022-11-28T05:35:01;4.43;;;2.40;;
75920;SDS011;64600;44.062;2.986;2022-11-28T05:37:26;3.63;;;2.13;;
75920;SDS011;64600;44.062;2.986;2022-11-28T05:39:52;4.45;;;2.35;;
75920;SDS011;64600;44.062;2.986;2022-11-28T05:42:18;6.10;;;2.55;;
75920;SDS011;64600;44.062;2.986;2022-11-28T05:44:43;3.65;;;2.00;;
75920;SDS011;64600;44.062;2.986;2022-11-28T05:47:09;2.88;;;1.77;;
75920;SDS011;64600;44.062;2.986;2022-11-28T05:49:34;3.08;;;1.80;;
75920;SDS011;64600;44.062;2.986;2022-11-28T05:52:00;2.78;;;1.60;;
75920;SDS011;64600;44.062;2.986;2022-11-28T05:54:25;2.63;;;1.55;;
75920;SDS011;64600;44.062;2.986;2022-11-28T05:56:51;2.72;;;1.50;;
75920;SDS011;64600;44.062;2.986;2022-11-28T05:59:16;2.95;;;1.67;;
75920;SDS011;64600;44.062;2.986;2022-11-28T06:01:42;3.85;;;1.58;;
75920;SDS011;64600;44.062;2.986;2022-11-28T06:04:07;3.05;;;1.70;;
75920;SDS011;64600;44.062;2.986;2022-11-28T06:06:33;2.25;;;1.40;;
75920;SDS011;64600;44.062;2.986;2022-11-28T06:08:59;3.42;;;2.25;;
75920;SDS011;64600;44.062;2.986;2022-11-28T06:11:26;2.90;;;1.63;;
75920;SDS011;64600;44.062;2.986;2022-11-28T06:13:53;2.10;;;1.45;;
75920;SDS011;64600;44.062;2.986;2022-11-28T06:16:23;2.95;;;1.50;;
75920;SDS011;64600;44.062;2.986;2022-11-28T06:18:54;3.17;;;1.63;;
75920;SDS011;64600;44.062;2.986;2022-11-28T06:21:21;2.58;;;1.75;;
75920;SDS011;64600;44.062;2.986;2022-11-28T06:23:47;2.70;;;1.60;;
75920;SDS011;64600;44.062;2.986;2022-11-28T06:26:14;1.90;;;1.30;;
75920;SDS011;64600;44.062;2.986;2022-11-28T06:28:41;4.32;;;1.52;;
75920;SDS011;64600;44.062;2.986;2022-11-28T06:31:10;3.20;;;1.30;;
75920;SDS011;64600;44.062;2.986;2022-11-28T06:33:36;3.50;;;1.67;;
75920;SDS011;64600;44.062;2.986;2022-11-28T06:36:03;3.90;;;1.40;;
75920;SDS011;64600;44.062;2.986;2022-11-28T06:38:29;1.40;;;1.17;;
75920;SDS011;64600;44.062;2.986;2022-11-28T06:40:56;2.03;;;1.40;;
75920;SDS011;64600;44.062;2.986;2022-11-28T06:45:47;2.15;;;1.25;;
75920;SDS011;64600;44.062;2.986;2022-11-28T06:48:13;3.80;;;1.70;;
75920;SDS011;64600;44.062;2.986;2022-11-28T06:50:38;5.85;;;1.70;;
75920;SDS011;64600;44.062;2.986;2022-11-28T06:53:04;4.65;;;2.03;;
75920;SDS011;64600;44.062;2.986;2022-11-28T06:55:29;3.60;;;2.08;;
75920;SDS011;64600;44.062;2.986;2022-11-28T06:57:55;5.32;;;2.33;;
75920;SDS011;64600;44.062;2.986;2022-11-28T07:00:20;4.88;;;2.10;;
75920;SDS011;64600;44.062;2.986;2022-11-28T07:02:46;6.55;;;2.38;;
75920;SDS011;64600;44.062;2.986;2022-11-28T07:05:11;12.20;;;2.35;;
75920;SDS011;64600;44.062;2.986;2022-11-28T07:07:40;10.75;;;3.00;;
75920;SDS011;64600;44.062;2.986;2022-11-28T07:10:06;9.23;;;2.65;;
75920;SDS011;64600;44.062;2.986;2022-11-28T07:12:32;7.88;;;2.33;;
75920;SDS011;64600;44.062;2.986;2022-11-28T07:14:57;7.85;;;2.58;;
75920;SDS011;64600;44.062;2.986;2022-11-28T07:17:22;9.55;;;2.47;;
75920;SDS011;64600;44.062;2.986;2022-11-28T07:19:48;11.35;;;3.63;;
75920;SDS011;64600;44.062;2.986;2022-11-28T07:22:14;11.48;;;2.45;;
75920;SDS011;64600;44.062;2.986;2022-11-28T07:24:39;13.52;;;2.80;;
75920;SDS011;64600;44.062;2.986;2022-11-28T07:27:05;19.60;;;2.90;;
75920;SDS011;64600;44.062;2.986;2022-11-28T07:29:30;12.38;;;2.88;;
75920;SDS011;64600;44.062;2.986;2022-11-28T07:32:03;11.45;;;2.95;;
75920;SDS011;64600;44.062;2.986;2022-11-28T07:34:29;12.45;;;2.42;;
75920;SDS011;64600;44.062;2.986;2022-11-28T07:36:55;9.30;;;2.80;;
75920;SDS011;64600;44.062;2.986;2022-11-28T07:39:21;10.73;;;3.03;;
75920;SDS011;64600;44.062;2.986;2022-11-28T07:41:46;11.98;;;2.67;;
75920;SDS011;64600;44.062;2.986;2022-11-28T07:44:12;8.13;;;2.45;;
75920;SDS011;64600;44.062;2.986;2022-11-28T07:46:41;17.10;;;3.22;;
75920;SDS011;64600;44.062;2.986;2022-11-28T07:49:08;8.82;;;2.38;;
75920;SDS011;64600;44.062;2.986;2022-11-28T07:51:34;9.80;;;2.28;;
75920;SDS011;64600;44.062;2.986;2022-11-28T07:54:00;13.32;;;1.92;;
75920;SDS011;64600;44.062;2.986;2022-11-28T07:56:30;13.25;;;2.63;;
75920;SDS011;64600;44.062;2.986;2022-11-28T07:58:58;6.80;;;1.85;;
75920;SDS011;64600;44.062;2.986;2022-11-28T08:01:28;9.20;;;1.92;;
75920;SDS011;64600;44.062;2.986;2022-11-28T08:03:55;12.23;;;2.08;;
75920;SDS011;64600;44.062;2.986;2022-11-28T08:06:22;9.63;;;2.10;;
75920;SDS011;64600;44.062;2.986;2022-11-28T08:08:49;4.25;;;2.20;;
75920;SDS011;64600;44.062;2.986;2022-11-28T08:11:16;7.20;;;2.05;;
75920;SDS011;64600;44.062;2.986;2022-11-28T08:13:42;7.30;;;2.00;;
75920;SDS011;64600;44.062;2.986;2022-11-28T08:16:13;5.18;;;1.80;;
75920;SDS011;64600;44.062;2.986;2022-11-28T08:18:39;6.90;;;1.73;;
75920;SDS011;64600;44.062;2.986;2022-11-28T08:21:06;6.53;;;1.85;;
75920;SDS011;64600;44.062;2.986;2022-11-28T08:23:35;4.63;;;2.05;;
75920;SDS011;64600;44.062;2.986;2022-11-28T08:26:01;3.85;;;1.77;;
75920;SDS011;64600;44.062;2.986;2022-11-28T08:28:28;4.38;;;1.58;;
75920;SDS011;64600;44.062;2.986;2022-11-28T08:30:54;2.47;;;1.50;;
75920;SDS011;64600;44.062;2.986;2022-11-28T08:33:20;3.08;;;1.30;;
75920;SDS011;64600;44.062;2.986;2022-11-28T08:35:48;4.82;;;1.50;;
75920;SDS011;64600;44.062;2.986;2022-11-28T08:38:14;4.28;;;1.40;;
75920;SDS011;64600;44.062;2.986;2022-11-28T08:40:39;2.95;;;1.50;;
75920;SDS011;64600;44.062;2.986;2022-11-28T08:43:04;3.08;;;1.30;;
75920;SDS011;64600;44.062;2.986;2022-11-28T08:45:33;3.30;;;1.60;;
75920;SDS011;64600;44.062;2.986;2022-11-28T08:48:01;1.88;;;1.20;;
75920;SDS011;64600;44.062;2.986;2022-11-28T08:50:27;1.88;;;1.35;;
75920;SDS011;64600;44.062;2.986;2022-11-28T08:52:52;2.58;;;1.20;;
75920;SDS011;64600;44.062;2.986;2022-11-28T08:55:18;3.20;;;1.52;;
75920;SDS011;64600;44.062;2.986;2022-11-28T08:57:43;3.10;;;1.30;;
75920;SDS011;64600;44.062;2.986;2022-11-28T09:00:09;1.70;;;1.10;;
75920;SDS011;64600;44.062;2.986;2022-11-28T09:02:35;2.05;;;1.33;;
75920;SDS011;64600;44.062;2.986;2022-11-28T09:05:00;2.15;;;1.40;;
75920;SDS011;64600;44.062;2.986;2022-11-28T09:07:25;2.40;;;1.35;;
75920;SDS011;64600;44.062;2.986;2022-11-28T09:09:51;3.30;;;1.33;;
75920;SDS011;64600;44.062;2.986;2022-11-28T09:12:16;2.65;;;1.50;;
75920;SDS011;64600;44.062;2.986;2022-11-28T09:14:42;2.00;;;1.20;;
75920;SDS011;64600;44.062;2.986;2022-11-28T09:17:07;1.35;;;0.98;;
75920;SDS011;64600;44.062;2.986;2022-11-28T09:19:33;2.05;;;1.10;;
75920;SDS011;64600;44.062;2.986;2022-11-28T09:21:59;2.30;;;1.20;;
75920;SDS011;64600;44.062;2.986;2022-11-28T09:24:24;3.72;;;1.20;;
75920;SDS011;64600;44.062;2.986;2022-11-28T09:26:50;3.00;;;1.20;;
75920;SDS011;64600;44.062;2.986;2022-11-28T09:29:15;2.33;;;1.38;;
75920;SDS011;64600;44.062;2.986;2022-11-28T09:31:41;2.05;;;1.10;;
75920;SDS011;64600;44.062;2.986;2022-11-28T09:34:06;1.30;;;1.10;;
75920;SDS011;64600;44.062;2.986;2022-11-28T09:36:32;1.55;;;1.13;;
75920;SDS011;64600;44.062;2.986;2022-11-28T09:39:01;1.52;;;1.02;;
75920;SDS011;64600;44.062;2.986;2022-11-28T09:43:52;2.75;;;1.30;;
75920;SDS011;64600;44.062;2.986;2022-11-28T09:46:21;1.35;;;1.00;;
75920;SDS011;64600;44.062;2.986;2022-11-28T09:48:51;1.33;;;0.90;;
75920;SDS011;64600;44.062;2.986;2022-11-28T09:54:31;2.72;;;1.38;;
75920;SDS011;64600;44.062;2.986;2022-11-28T09:56:46;1.05;;;0.90;;
75920;SDS011;64600;44.062;2.986;2022-11-28T09:59:24;1.95;;;1.00;;
75920;SDS011;64600;44.062;2.986;2022-11-28T10:04:41;2.88;;;1.30;;
75920;SDS011;64600;44.062;2.986;2022-11-28T10:13:02;2.97;;;1.45;;
75920;SDS011;64600;44.062;2.986;2022-11-28T10:15:42;1.30;;;1.10;;
75920;SDS011;64600;44.062;2.986;2022-11-28T10:20:46;2.45;;;1.25;;
75920;SDS011;64600;44.062;2.986;2022-11-28T10:23:34;2.03;;;1.60;;
75920;SDS011;64600;44.062;2.986;2022-11-28T10:26:03;2.15;;;1.52;;
75920;SDS011;64600;44.062;2.986;2022-11-28T10:28:36;1.80;;;1.40;;
75920;SDS011;64600;44.062;2.986;2022-11-28T10:34:04;1.83;;;1.42;;
75920;SDS011;64600;44.062;2.986;2022-11-28T10:36:38;2.15;;;1.60;;
75920;SDS011;64600;44.062;2.986;2022-11-28T10:39:10;3.25;;;1.58;;
75920;SDS011;64600;44.062;2.986;2022-11-28T10:41:38;2.13;;;1.80;;
75920;SDS011;64600;44.062;2.986;2022-11-28T10:44:11;3.28;;;1.38;;
75920;SDS011;64600;44.062;2.986;2022-11-28T10:46:49;3.30;;;1.73;;
75920;SDS011;64600;44.062;2.986;2022-11-28T10:52:23;2.85;;;1.88;;
75920;SDS011;64600;44.062;2.986;2022-11-28T10:57:29;2.83;;;1.98;;
75920;SDS011;64600;44.062;2.986;2022-11-28T11:00:15;3.20;;;1.85;;
75920;SDS011;64600;44.062;2.986;2022-11-28T11:02:45;2.85;;;1.70;;
75920;SDS011;64600;44.062;2.986;2022-11-28T11:05:16;4.90;;;2.22;;
75920;SDS011;64600;44.062;2.986;2022-11-28T11:07:50;3.28;;;2.00;;
75920;SDS011;64600;44.062;2.986;2022-11-28T11:12:46;4.43;;;1.88;;
75920;SDS011;64600;44.062;2.986;2022-11-28T11:15:16;4.15;;;2.03;;
75920;SDS011;64600;44.062;2.986;2022-11-28T11:17:43;2.83;;;1.83;;
75920;SDS011;64600;44.062;2.986;2022-11-28T11:20:42;4.32;;;1.90;;
75920;SDS011;64600;44.062;2.986;2022-11-28T11:25:50;4.20;;;2.30;;
75920;SDS011;64600;44.062;2.986;2022-11-28T11:29:03;8.30;;;2.75;;
75920;SDS011;64600;44.062;2.986;2022-11-28T11:33:51;7.65;;;2.75;;
75920;SDS011;64600;44.062;2.986;2022-11-28T11:39:03;10.55;;;2.92;;
75920;SDS011;64600;44.062;2.986;2022-11-28T11:41:46;9.20;;;2.25;;
75920;SDS011;64600;44.062;2.986;2022-11-28T11:51:56;10.02;;;2.75;;
75920;SDS011;64600;44.062;2.986;2022-11-28T11:54:22;7.13;;;2.75;;
75920;SDS011;64600;44.062;2.986;2022-11-28T11:56:48;10.63;;;3.33;;
75920;SDS011;64600;44.062;2.986;2022-11-28T11:59:23;26.90;;;3.97;;
75920;SDS011;64600;44.062;2.986;2022-11-28T12:01:51;24.85;;;4.07;;
75920;SDS011;64600;44.062;2.986;2022-11-28T12:04:26;24.63;;;4.18;;
75920;SDS011;64600;44.062;2.986;2022-11-28T12:06:55;26.88;;;5.40;;
75920;SDS011;64600;44.062;2.986;2022-11-28T12:09:27;21.40;;;4.47;;
75920;SDS011;64600;44.062;2.986;2022-11-28T12:14:43;16.13;;;3.40;;
75920;SDS011;64600;44.062;2.986;2022-11-28T12:25:24;12.43;;;3.22;;
75920;SDS011;64600;44.062;2.986;2022-11-28T12:34:01;13.65;;;3.35;;
75920;SDS011;64600;44.062;2.986;2022-11-28T12:36:54;13.00;;;3.70;;
75920;SDS011;64600;44.062;2.986;2022-11-28T12:50:40;9.82;;;3.03;;
75920;SDS011;64600;44.062;2.986;2022-11-28T12:53:26;9.63;;;3.65;;
75920;SDS011;64600;44.062;2.986;2022-11-28T12:59:03;7.03;;;3.55;;
75920;SDS011;64600;44.062;2.986;2022-11-28T13:02:00;15.35;;;3.95;;
75920;SDS011;64600;44.062;2.986;2022-11-28T13:21:04;13.07;;;4.50;;
75920;SDS011;64600;44.062;2.986;2022-11-28T13:31:50;8.25;;;3.45;;
75920;SDS011;64600;44.062;2.986;2022-11-28T13:34:17;8.07;;;3.50;;
75920;SDS011;64600;44.062;2.986;2022-11-28T13:45:02;10.32;;;4.53;;
75920;SDS011;64600;44.062;2.986;2022-11-28T13:47:32;8.23;;;3.80;;
75920;SDS011;64600;44.062;2.986;2022-11-28T13:55:37;7.72;;;3.67;;
75920;SDS011;64600;44.062;2.986;2022-11-28T13:58:16;8.23;;;3.42;;
75920;SDS011;64600;44.062;2.986;2022-11-28T14:00:56;6.68;;;3.75;;
75920;SDS011;64600;44.062;2.986;2022-11-28T14:03:22;9.38;;;3.33;;
75920;SDS011;64600;44.062;2.986;2022-11-28T14:05:48;9.75;;;3.42;;
75920;SDS011;64600;44.062;2.986;2022-11-28T14:08:26;6.38;;;2.75;;
75920;SDS011;64600;44.062;2.986;2022-11-28T14:11:06;7.65;;;3.13;;
75920;SDS011;64600;44.062;2.986;2022-11-28T14:16:50;6.82;;;3.10;;
75920;SDS011;64600;44.062;2.986;2022-11-28T14:26:43;7.05;;;2.88;;
75920;SDS011;64600;44.062;2.986;2022-11-28T14:29:19;6.20;;;2.97;;
75920;SDS011;64600;44.062;2.986;2022-11-28T14:31:47;4.55;;;2.92;;
75920;SDS011;64600;44.062;2.986;2022-11-28T14:39:50;4.93;;;2.60;;
75920;SDS011;64600;44.062;2.986;2022-11-28T14:44:48;5.20;;;2.63;;
75920;SDS011;64600;44.062;2.986;2022-11-28T14:49:45;5.82;;;2.33;;
75920;SDS011;64600;44.062;2.986;2022-11-28T14:54:43;5.85;;;2.95;;
75920;SDS011;64600;44.062;2.986;2022-11-28T14:57:10;5.47;;;2.47;;
75920;SDS011;64600;44.062;2.986;2022-11-28T14:59:41;4.75;;;2.30;;
75920;SDS011;64600;44.062;2.986;2022-11-28T15:02:17;5.63;;;2.47;;
75920;SDS011;64600;44.062;2.986;2022-11-28T15:10:53;4.55;;;2.20;;
75920;SDS011;64600;44.062;2.986;2022-11-28T15:13:34;5.70;;;2.75;;
75920;SDS011;64600;44.062;2.986;2022-11-28T15:16:10;4.80;;;2.55;;
75920;SDS011;64600;44.062;2.986;2022-11-28T15:18:37;5.32;;;2.70;;
75920;SDS011;64600;44.062;2.986;2022-11-28T15:21:09;4.82;;;2.55;;
75920;SDS011;64600;44.062;2.986;2022-11-28T15:23:36;3.65;;;2.15;;
75920;SDS011;64600;44.062;2.986;2022-11-28T15:26:04;4.63;;;2.17;;
75920;SDS011;64600;44.062;2.986;2022-11-28T15:28:31;5.03;;;2.10;;
75920;SDS011;64600;44.062;2.986;2022-11-28T15:31:02;4.68;;;2.55;;
75920;SDS011;64600;44.062;2.986;2022-11-28T15:33:29;4.15;;;1.95;;
75920;SDS011;64600;44.062;2.986;2022-11-28T15:35:57;5.00;;;2.10;;
75920;SDS011;64600;44.062;2.986;2022-11-28T15:38:25;3.95;;;2.10;;
75920;SDS011;64600;44.062;2.986;2022-11-28T15:40:52;4.85;;;2.15;;
75920;SDS011;64600;44.062;2.986;2022-11-28T15:43:18;3.13;;;1.80;;
75920;SDS011;64600;44.062;2.986;2022-11-28T15:45:47;3.88;;;2.00;;
75920;SDS011;64600;44.062;2.986;2022-11-28T15:48:27;3.40;;;1.85;;
75920;SDS011;64600;44.062;2.986;2022-11-28T15:51:03;3.42;;;1.95;;
75920;SDS011;64600;44.062;2.986;2022-11-28T15:53:30;3.95;;;2.10;;
75920;SDS011;64600;44.062;2.986;2022-11-28T15:58:51;4.95;;;2.38;;
75920;SDS011;64600;44.062;2.986;2022-11-28T16:01:21;3.53;;;1.75;;
75920;SDS011;64600;44.062;2.986;2022-11-28T16:11:29;4.43;;;2.17;;
75920;SDS011;64600;44.062;2.986;2022-11-28T16:13:56;3.73;;;1.60;;
75920;SDS011;64600;44.062;2.986;2022-11-28T16:16:26;4.63;;;2.00;;
75920;SDS011;64600;44.062;2.986;2022-11-28T16:18:56;3.25;;;1.73;;
75920;SDS011;64600;44.062;2.986;2022-11-28T16:21:24;4.72;;;2.22;;
75920;SDS011;64600;44.062;2.986;2022-11-28T16:23:53;3.45;;;1.63;;
75920;SDS011;64600;44.062;2.986;2022-11-28T16:26:23;4.20;;;1.80;;
75920;SDS011;64600;44.062;2.986;2022-11-28T16:28:56;5.97;;;2.10;;
75920;SDS011;64600;44.062;2.986;2022-11-28T16:31:24;3.35;;;1.90;;
75920;SDS011;64600;44.062;2.986;2022-11-28T16:33:51;3.97;;;1.40;;
75920;SDS011;64600;44.062;2.986;2022-11-28T16:36:24;4.25;;;1.88;;
75920;SDS011;64600;44.062;2.986;2022-11-28T16:41:35;4.68;;;1.92;;
75920;SDS011;64600;44.062;2.986;2022-11-28T16:44:03;4.05;;;1.80;;
75920;SDS011;64600;44.062;2.986;2022-11-28T16:46:37;3.33;;;1.75;;
75920;SDS011;64600;44.062;2.986;2022-11-28T16:49:03;3.30;;;1.60;;
75920;SDS011;64600;44.062;2.986;2022-11-28T16:51:41;3.88;;;1.70;;
75920;SDS011;64600;44.062;2.986;2022-11-28T16:56:52;4.50;;;2.10;;
75920;SDS011;64600;44.062;2.986;2022-11-28T16:59:22;3.15;;;2.05;;
75920;SDS011;64600;44.062;2.986;2022-11-28T17:01:51;4.18;;;1.73;;
75920;SDS011;64600;44.062;2.986;2022-11-28T17:04:21;2.83;;;1.67;;
75920;SDS011;64600;44.062;2.986;2022-11-28T17:06:49;3.92;;;1.70;;
75920;SDS011;64600;44.062;2.986;2022-11-28T17:09:14;4.45;;;2.40;;
75920;SDS011;64600;44.062;2.986;2022-11-28T17:11:42;3.80;;;1.90;;
75920;SDS011;64600;44.062;2.986;2022-11-28T17:14:10;3.78;;;1.85;;
75920;SDS011;64600;44.062;2.986;2022-11-28T17:16:37;4.43;;;1.95;;
75920;SDS011;64600;44.062;2.986;2022-11-28T17:19:03;5.30;;;1.98;;
75920;SDS011;64600;44.062;2.986;2022-11-28T17:21:33;4.40;;;2.25;;
75920;SDS011;64600;44.062;2.986;2022-11-28T17:24:05;7.50;;;2.33;;
75920;SDS011;64600;44.062;2.986;2022-11-28T17:26:37;5.13;;;1.98;;
75920;SDS011;64600;44.062;2.986;2022-11-28T17:29:06;4.15;;;2.00;;
75920;SDS011;64600;44.062;2.986;2022-11-28T17:31:34;32.30;;;4.07;;
75920;SDS011;64600;44.062;2.986;2022-11-28T17:33:59;18.65;;;2.83;;
75920;SDS011;64600;44.062;2.986;2022-11-28T17:36:25;21.15;;;3.92;;
75920;SDS011;64600;44.062;2.986;2022-11-28T17:38:50;33.03;;;4.82;;
75920;SDS011;64600;44.062;2.986;2022-11-28T17:41:16;38.72;;;4.22;;
75920;SDS011;64600;44.062;2.986;2022-11-28T17:43:42;48.35;;;5.95;;
75920;SDS011;64600;44.062;2.986;2022-11-28T17:46:08;56.22;;;6.35;;
75920;SDS011;64600;44.062;2.986;2022-11-28T17:48:33;56.38;;;6.38;;
75920;SDS011;64600;44.062;2.986;2022-11-28T17:50:59;64.95;;;6.95;;
75920;SDS011;64600;44.062;2.986;2022-11-28T17:53:26;53.85;;;6.57;;
75920;SDS011;64600;44.062;2.986;2022-11-28T17:55:51;38.72;;;5.70;;
75920;SDS011;64600;44.062;2.986;2022-11-28T17:58:23;43.45;;;6.65;;
75920;SDS011;64600;44.062;2.986;2022-11-28T18:00:49;42.05;;;6.53;;
75920;SDS011;64600;44.062;2.986;2022-11-28T18:03:15;44.72;;;5.50;;
75920;SDS011;64600;44.062;2.986;2022-11-28T18:05:44;39.63;;;6.45;;
75920;SDS011;64600;44.062;2.986;2022-11-28T18:08:11;61.45;;;7.20;;
75920;SDS011;64600;44.062;2.986;2022-11-28T18:13:04;73.32;;;9.52;;
75920;SDS011;64600;44.062;2.986;2022-11-28T18:15:30;54.33;;;7.03;;
75920;SDS011;64600;44.062;2.986;2022-11-28T18:17:56;54.70;;;6.80;;
75920;SDS011;64600;44.062;2.986;2022-11-28T18:20:22;44.72;;;6.75;;
75920;SDS011;64600;44.062;2.986;2022-11-28T18:22:53;46.50;;;5.88;;
75920;SDS011;64600;44.062;2.986;2022-11-28T18:25:19;65.28;;;7.05;;
75920;SDS011;64600;44.062;2.986;2022-11-28T18:27:45;40.53;;;6.38;;
75920;SDS011;64600;44.062;2.986;2022-11-28T18:30:10;64.35;;;7.72;;